Pagina principale
METAR-TAF:

METAR-TAF

Aeroporti :

Pécs, Ungheria

latitudine: 46-06N, longitudine: 018-14E, altezza: 201 m

Osservazione

Il bollettino è stato emesso 37 minuti fa, alle 09:49 UTC
Temperature 2°C
Umidità 80%
Pressione 1026 hPa

METAR: LHPP 180949Z AUTO /////KT //// ////// 02/M01 Q1026

Ora: 11:26 (10:26 UTC)

Previsione

Il bollettino è stato emesso 2 ore e 11 minuti fa, alle 08:15 UTC
Previsione valida dal 18 alle 09 UTC al 18 alle 18 UTC
Vento 5 kt da est
Visibilità 10 km o più
Nubi sparse ad un'altezza di 4500 ft
Nuvoloso ad un'altezza di 8000 ft
Temporaneamente
dal 18 alle 09 UTC al 18 alle 18 UTC
Nuvoloso ad un'altezza di 4000 ft
Nuvoloso ad un'altezza di 6000 ft
neve debole

TAF: LHPP 180815Z 1809/1818 10005KT 9999 SCT045 BKN080 TEMPO 1809/1818 -SN BKN040 BKN060

Osservazioni e previsioni meteorologiche di più di 4000 aeroporti (messaggi METAR e TAF).

Le stazioni disponibili sono rappresentate dai dischi gialli e rossi sulla carta.

Puntare il mouse per vedere il nome della stazione.

Clicca sopra per visualizzare le osservazioni e previsioni meteorologiche.

Per cambiare la mappa : fare clic sui pulsanti verdi con una croce nera per ingrandire, il pulsante verde con un trattino per diminuire, o sulla freccia verde per le mappe adiacenti.


METAR-TAF: